sensor_id;sensor_type;location;lat;lon;timestamp;P1;P2;P0
55449;PMS5003;41318;58.724;50.180;2022-07-30T13:21:56;23.00;23.00;15.00
55449;PMS5003;41318;58.724;50.180;2022-07-30T13:24:27;19.50;19.50;13.00
55449;PMS5003;41318;58.724;50.180;2022-07-30T13:26:58;17.50;17.50;14.25
55449;PMS5003;41318;58.724;50.180;2022-07-30T13:29:47;17.25;17.25;13.50
55449;PMS5003;41318;58.724;50.180;2022-07-30T13:32:18;16.33;16.33;12.33
55449;PMS5003;41318;58.724;50.180;2022-07-30T13:34:49;30.33;29.00;19.67
55449;PMS5003;41318;58.724;50.180;2022-07-30T13:37:20;28.25;27.75;19.50
55449;PMS5003;41318;58.724;50.180;2022-07-30T13:40:09;25.00;24.75;19.00
55449;PMS5003;41318;58.724;50.180;2022-07-30T13:42:41;20.00;20.00;15.00
55449;PMS5003;41318;58.724;50.180;2022-07-30T13:45:12;40.40;35.80;23.00
55449;PMS5003;41318;58.724;50.180;2022-07-30T13:47:43;22.50;22.50;15.00
55449;PMS5003;41318;58.724;50.180;2022-07-30T13:50:14;18.33;18.33;13.67
55449;PMS5003;41318;58.724;50.180;2022-07-30T13:52:45;18.00;18.00;13.00
55449;PMS5003;41318;58.724;50.180;2022-07-30T13:55:16;29.00;27.25;18.50
55449;PMS5003;41318;58.724;50.180;2022-07-30T13:57:47;24.25;24.25;16.00
55449;PMS5003;41318;58.724;50.180;2022-07-30T14:00:18;22.25;21.75;14.50
55449;PMS5003;41318;58.724;50.180;2022-07-30T14:02:49;17.00;17.00;13.75
55449;PMS5003;41318;58.724;50.180;2022-07-30T14:05:39;17.00;17.00;10.75
55449;PMS5003;41318;58.724;50.180;2022-07-30T14:08:11;16.25;16.25;12.50
55449;PMS5003;41318;58.724;50.180;2022-07-30T14:10:42;18.25;18.25;14.00
55449;PMS5003;41318;58.724;50.180;2022-07-30T14:13:13;20.25;20.25;15.75
55449;PMS5003;41318;58.724;50.180;2022-07-30T14:16:02;11.25;9.00;2.00
55449;PMS5003;41318;58.724;50.180;2022-07-30T14:18:33;16.50;16.25;11.75
55449;PMS5003;41318;58.724;50.180;2022-07-30T14:21:04;17.50;16.75;12.25
55449;PMS5003;41318;58.724;50.180;2022-07-30T14:23:35;18.00;18.00;13.50
55449;PMS5003;41318;58.724;50.180;2022-07-30T14:26:06;16.00;16.00;12.25
55449;PMS5003;41318;58.724;50.180;2022-07-30T14:28:37;19.00;18.75;12.50
55449;PMS5003;41318;58.724;50.180;2022-07-30T14:31:09;18.25;18.25;13.50
55449;PMS5003;41318;58.724;50.180;2022-07-30T14:33:40;17.75;17.75;14.00
55449;PMS5003;41318;58.724;50.180;2022-07-30T14:36:11;15.75;15.75;12.00
55449;PMS5003;41318;58.724;50.180;2022-07-30T14:38:44;18.75;18.75;13.75
55449;PMS5003;41318;58.724;50.180;2022-07-30T14:41:15;17.75;17.75;13.25
55449;PMS5003;41318;58.724;50.180;2022-07-30T14:43:46;16.75;16.75;13.50
55449;PMS5003;41318;58.724;50.180;2022-07-30T14:46:17;16.50;16.50;12.00
55449;PMS5003;41318;58.724;50.180;2022-07-30T14:49:06;18.75;18.75;13.75
55449;PMS5003;41318;58.724;50.180;2022-07-30T14:51:38;20.00;20.00;15.00
55449;PMS5003;41318;58.724;50.180;2022-07-30T14:54:09;19.67;19.67;15.00
55449;PMS5003;41318;58.724;50.180;2022-07-30T14:56:41;20.50;20.50;15.25
55449;PMS5003;41318;58.724;50.180;2022-07-30T14:59:30;21.25;20.50;15.00
55449;PMS5003;41318;58.724;50.180;2022-07-30T15:02:20;19.00;19.00;14.00
55449;PMS5003;41318;58.724;50.180;2022-07-30T15:04:51;18.33;18.00;14.00
55449;PMS5003;41318;58.724;50.180;2022-07-30T15:07:22;23.67;23.67;16.00
55449;PMS5003;41318;58.724;50.180;2022-07-30T15:09:53;25.75;25.75;17.25
55449;PMS5003;41318;58.724;50.180;2022-07-30T15:12:43;20.00;20.00;12.00
55449;PMS5003;41318;58.724;50.180;2022-07-30T15:15:33;24.00;24.00;16.00
55449;PMS5003;41318;58.724;50.180;2022-07-30T15:18:04;30.25;29.00;19.25
55449;PMS5003;41318;58.724;50.180;2022-07-30T15:20:35;34.50;31.50;21.00
55449;PMS5003;41318;58.724;50.180;2022-07-30T15:23:06;35.50;32.25;21.75
55449;PMS5003;41318;58.724;50.180;2022-07-30T15:25:38;35.75;32.25;21.50
55449;PMS5003;41318;58.724;50.180;2022-07-30T15:28:08;35.75;32.75;21.50
55449;PMS5003;41318;58.724;50.180;2022-07-30T15:30:39;30.00;28.67;20.00
55449;PMS5003;41318;58.724;50.180;2022-07-30T15:33:10;32.50;30.25;19.25
55449;PMS5003;41318;58.724;50.180;2022-07-30T15:35:41;34.00;31.33;19.67
55449;PMS5003;41318;58.724;50.180;2022-07-30T15:38:12;32.00;30.33;20.00
55449;PMS5003;41318;58.724;50.180;2022-07-30T15:40:43;31.00;29.75;20.25
55449;PMS5003;41318;58.724;50.180;2022-07-30T15:43:14;30.25;29.00;19.00
55449;PMS5003;41318;58.724;50.180;2022-07-30T15:45:45;30.33;28.67;19.33
55449;PMS5003;41318;58.724;50.180;2022-07-30T15:48:16;42.50;36.25;24.75
55449;PMS5003;41318;58.724;50.180;2022-07-30T15:50:47;42.25;36.75;25.25
55449;PMS5003;41318;58.724;50.180;2022-07-30T15:53:18;46.00;39.40;27.20
55449;PMS5003;41318;58.724;50.180;2022-07-30T15:55:49;47.50;40.00;26.00
55449;PMS5003;41318;58.724;50.180;2022-07-30T15:58:20;43.40;36.80;24.60
55449;PMS5003;41318;58.724;50.180;2022-07-30T16:00:51;41.25;35.75;25.25
55449;PMS5003;41318;58.724;50.180;2022-07-30T16:03:21;33.00;31.00;19.40
55449;PMS5003;41318;58.724;50.180;2022-07-30T16:06:11;38.80;33.80;22.00
55449;PMS5003;41318;58.724;50.180;2022-07-30T16:08:43;35.40;32.40;22.60
55449;PMS5003;41318;58.724;50.180;2022-07-30T16:11:13;39.25;34.75;23.25
55449;PMS5003;41318;58.724;50.180;2022-07-30T16:13:44;38.40;34.40;22.60
55449;PMS5003;41318;58.724;50.180;2022-07-30T16:16:15;43.20;37.00;24.80
55449;PMS5003;41318;58.724;50.180;2022-07-30T16:18:46;53.00;44.40;27.00
55449;PMS5003;41318;58.724;50.180;2022-07-30T16:21:17;36.40;33.40;21.60
55449;PMS5003;41318;58.724;50.180;2022-07-30T16:23:48;26.00;26.00;16.00
55449;PMS5003;41318;58.724;50.180;2022-07-30T16:26:25;23.50;23.50;16.25
55449;PMS5003;41318;58.724;50.180;2022-07-30T16:28:56;18.75;18.75;13.75
55449;PMS5003;41318;58.724;50.180;2022-07-30T16:31:27;24.33;24.33;15.33
55449;PMS5003;41318;58.724;50.180;2022-07-30T16:33:58;24.50;24.50;15.25
55449;PMS5003;41318;58.724;50.180;2022-07-30T16:36:29;27.67;27.00;18.00
55449;PMS5003;41318;58.724;50.180;2022-07-30T16:39:00;33.50;31.25;19.00
55449;PMS5003;41318;58.724;50.180;2022-07-30T16:41:31;30.25;29.00;19.75
55449;PMS5003;41318;58.724;50.180;2022-07-30T16:44:02;26.75;26.50;16.25
55449;PMS5003;41318;58.724;50.180;2022-07-30T16:46:33;22.50;21.50;16.00
55449;PMS5003;41318;58.724;50.180;2022-07-30T16:49:04;29.00;29.00;19.75
55449;PMS5003;41318;58.724;50.180;2022-07-30T16:51:35;31.75;30.50;20.00
55449;PMS5003;41318;58.724;50.180;2022-07-30T16:54:06;33.67;31.67;21.00
55449;PMS5003;41318;58.724;50.180;2022-07-30T16:56:37;36.00;32.25;21.00
55449;PMS5003;41318;58.724;50.180;2022-07-30T16:59:08;36.00;32.80;20.80
55449;PMS5003;41318;58.724;50.180;2022-07-30T17:01:39;29.00;29.00;19.25
55449;PMS5003;41318;58.724;50.180;2022-07-30T17:04:28;23.25;23.25;15.75
55449;PMS5003;41318;58.724;50.180;2022-07-30T17:06:59;19.00;19.00;14.67
55449;PMS5003;41318;58.724;50.180;2022-07-30T17:09:30;25.67;25.67;19.33
55449;PMS5003;41318;58.724;50.180;2022-07-30T17:12:01;22.67;22.67;16.33
55449;PMS5003;41318;58.724;50.180;2022-07-30T17:14:32;24.00;23.67;16.00
55449;PMS5003;41318;58.724;50.180;2022-07-30T17:17:06;20.75;20.75;14.00
55449;PMS5003;41318;58.724;50.180;2022-07-30T17:19:37;28.00;25.00;18.25
55449;PMS5003;41318;58.724;50.180;2022-07-30T17:22:11;23.00;23.00;17.75
55449;PMS5003;41318;58.724;50.180;2022-07-30T17:24:43;25.00;25.00;18.50
55449;PMS5003;41318;58.724;50.180;2022-07-30T17:27:14;25.33;25.33;18.00
55449;PMS5003;41318;58.724;50.180;2022-07-30T17:29:45;26.20;26.20;16.60
55449;PMS5003;41318;58.724;50.180;2022-07-30T17:32:17;21.75;21.75;17.25
55449;PMS5003;41318;58.724;50.180;2022-07-30T17:34:48;29.25;29.25;22.00
55449;PMS5003;41318;58.724;50.180;2022-07-30T17:37:38;29.60;28.80;18.80
55449;PMS5003;41318;58.724;50.180;2022-07-30T17:40:09;26.33;25.67;18.33
55449;PMS5003;41318;58.724;50.180;2022-07-30T17:42:42;29.50;29.00;19.00
55449;PMS5003;41318;58.724;50.180;2022-07-30T17:45:15;28.75;28.75;20.00
55449;PMS5003;41318;58.724;50.180;2022-07-30T17:48:05;26.60;26.00;19.20
55449;PMS5003;41318;58.724;50.180;2022-07-30T17:50:36;28.25;28.25;19.50
55449;PMS5003;41318;58.724;50.180;2022-07-30T17:53:07;25.50;25.50;19.00
55449;PMS5003;41318;58.724;50.180;2022-07-30T17:55:41;24.75;24.75;19.50
55449;PMS5003;41318;58.724;50.180;2022-07-30T17:58:14;29.50;29.00;19.25
55449;PMS5003;41318;58.724;50.180;2022-07-30T18:00:45;31.00;29.50;20.00
55449;PMS5003;41318;58.724;50.180;2022-07-30T18:03:16;28.75;28.75;19.00
55449;PMS5003;41318;58.724;50.180;2022-07-30T18:05:47;25.00;25.00;15.00
55449;PMS5003;41318;58.724;50.180;2022-07-30T18:08:18;25.50;25.50;18.00
55449;PMS5003;41318;58.724;50.180;2022-07-30T18:11:07;24.40;24.40;19.00
55449;PMS5003;41318;58.724;50.180;2022-07-30T18:13:38;27.00;27.00;19.67
55449;PMS5003;41318;58.724;50.180;2022-07-30T18:16:09;25.50;25.50;17.00
55449;PMS5003;41318;58.724;50.180;2022-07-30T18:18:41;27.40;27.00;17.80
55449;PMS5003;41318;58.724;50.180;2022-07-30T18:21:11;23.50;23.50;17.25
55449;PMS5003;41318;58.724;50.180;2022-07-30T18:23:42;27.00;26.25;18.00
55449;PMS5003;41318;58.724;50.180;2022-07-30T18:26:13;23.50;23.50;17.25
55449;PMS5003;41318;58.724;50.180;2022-07-30T18:29:03;27.25;27.25;18.50
55449;PMS5003;41318;58.724;50.180;2022-07-30T18:31:34;26.00;26.00;20.00
55449;PMS5003;41318;58.724;50.180;2022-07-30T18:34:06;29.20;28.80;19.20
55449;PMS5003;41318;58.724;50.180;2022-07-30T18:36:37;26.40;26.00;20.00
55449;PMS5003;41318;58.724;50.180;2022-07-30T18:39:08;7.75;6.25;0.00
55449;PMS5003;41318;58.724;50.180;2022-07-30T18:41:39;25.25;25.25;19.00
55449;PMS5003;41318;58.724;50.180;2022-07-30T18:44:10;28.33;27.67;18.33
55449;PMS5003;41318;58.724;50.180;2022-07-30T18:46:40;22.50;22.25;17.00
55449;PMS5003;41318;58.724;50.180;2022-07-30T18:49:30;25.50;25.00;17.50
55449;PMS5003;41318;58.724;50.180;2022-07-30T18:52:01;23.25;23.25;16.00
55449;PMS5003;41318;58.724;50.180;2022-07-30T18:54:32;21.67;21.67;16.67
55449;PMS5003;41318;58.724;50.180;2022-07-30T18:57:03;21.75;21.75;15.00
55449;PMS5003;41318;58.724;50.180;2022-07-30T18:59:52;21.75;21.75;16.00
55449;PMS5003;41318;58.724;50.180;2022-07-30T19:02:42;19.50;19.50;13.00
55449;PMS5003;41318;58.724;50.180;2022-07-30T19:05:13;23.25;23.25;15.75
55449;PMS5003;41318;58.724;50.180;2022-07-30T19:07:44;22.00;22.00;16.00
55449;PMS5003;41318;58.724;50.180;2022-07-30T19:10:14;23.67;23.33;15.67
55449;PMS5003;41318;58.724;50.180;2022-07-30T19:12:46;22.00;22.00;16.75
55449;PMS5003;41318;58.724;50.180;2022-07-30T19:15:17;24.25;23.75;17.00
55449;PMS5003;41318;58.724;50.180;2022-07-30T19:17:48;21.75;21.75;16.00
55449;PMS5003;41318;58.724;50.180;2022-07-30T19:20:21;24.50;24.50;18.50
55449;PMS5003;41318;58.724;50.180;2022-07-30T19:23:00;26.60;25.60;19.00
55449;PMS5003;41318;58.724;50.180;2022-07-30T19:25:32;25.00;25.00;16.50
55449;PMS5003;41318;58.724;50.180;2022-07-30T19:28:03;24.00;23.40;15.60
55449;PMS5003;41318;58.724;50.180;2022-07-30T19:30:53;26.00;26.00;17.75
55449;PMS5003;41318;58.724;50.180;2022-07-30T19:33:23;25.00;24.50;15.00
55449;PMS5003;41318;58.724;50.180;2022-07-30T19:36:12;24.25;23.75;16.50
55449;PMS5003;41318;58.724;50.180;2022-07-30T19:38:46;19.75;19.75;13.75
55449;PMS5003;41318;58.724;50.180;2022-07-30T19:41:17;20.50;20.50;15.00
55449;PMS5003;41318;58.724;50.180;2022-07-30T19:44:09;20.75;20.75;13.75
55449;PMS5003;41318;58.724;50.180;2022-07-30T19:46:41;22.25;22.25;14.25
55449;PMS5003;41318;58.724;50.180;2022-07-30T19:49:12;21.00;21.00;13.33
55449;PMS5003;41318;58.724;50.180;2022-07-30T19:51:43;20.67;20.67;15.00
55449;PMS5003;41318;58.724;50.180;2022-07-30T19:54:14;17.67;17.67;12.67
55449;PMS5003;41318;58.724;50.180;2022-07-30T19:56:45;20.00;20.00;14.00
55449;PMS5003;41318;58.724;50.180;2022-07-30T19:59:16;19.75;19.75;13.50
55449;PMS5003;41318;58.724;50.180;2022-07-30T20:01:48;20.25;20.25;13.00
55449;PMS5003;41318;58.724;50.180;2022-07-30T20:04:19;20.25;19.25;12.00
55449;PMS5003;41318;58.724;50.180;2022-07-30T20:07:08;13.00;13.00;11.75
55449;PMS5003;41318;58.724;50.180;2022-07-30T20:09:39;22.67;21.00;14.00
55449;PMS5003;41318;58.724;50.180;2022-07-30T20:12:11;16.50;16.50;12.75
55449;PMS5003;41318;58.724;50.180;2022-07-30T20:15:03;22.00;22.00;16.25
55449;PMS5003;41318;58.724;50.180;2022-07-30T20:17:34;9.75;9.75;4.25
55449;PMS5003;41318;58.724;50.180;2022-07-30T20:20:05;24.33;24.33;17.33
55449;PMS5003;41318;58.724;50.180;2022-07-30T20:22:36;22.50;22.50;16.50
55449;PMS5003;41318;58.724;50.180;2022-07-30T20:25:07;24.50;24.50;17.00
55449;PMS5003;41318;58.724;50.180;2022-07-30T20:27:39;24.80;24.80;18.80
55449;PMS5003;41318;58.724;50.180;2022-07-30T20:30:10;23.50;23.50;17.00
55449;PMS5003;41318;58.724;50.180;2022-07-30T20:32:41;25.00;25.00;18.50
55449;PMS5003;41318;58.724;50.180;2022-07-30T20:35:12;22.75;22.50;15.75
55449;PMS5003;41318;58.724;50.180;2022-07-30T20:37:43;21.67;21.67;15.67
55449;PMS5003;41318;58.724;50.180;2022-07-30T20:40:14;20.00;20.00;15.00
55449;PMS5003;41318;58.724;50.180;2022-07-30T20:43:03;20.75;20.25;13.75
55449;PMS5003;41318;58.724;50.180;2022-07-30T20:45:35;20.50;20.50;14.25
55449;PMS5003;41318;58.724;50.180;2022-07-30T20:48:29;19.75;19.75;13.50
55449;PMS5003;41318;58.724;50.180;2022-07-30T20:51:04;19.75;19.25;14.00
55449;PMS5003;41318;58.724;50.180;2022-07-30T20:53:35;20.50;20.50;14.00
55449;PMS5003;41318;58.724;50.180;2022-07-30T20:56:06;21.33;21.33;14.00
55449;PMS5003;41318;58.724;50.180;2022-07-30T20:58:37;23.75;23.25;15.75
55449;PMS5003;41318;58.724;50.180;2022-07-30T21:01:09;22.00;22.00;15.67
55449;PMS5003;41318;58.724;50.180;2022-07-30T21:03:40;26.00;26.00;20.00
55449;PMS5003;41318;58.724;50.180;2022-07-30T21:06:12;24.00;24.00;18.75
55449;PMS5003;41318;58.724;50.180;2022-07-30T21:08:43;21.25;21.25;16.50
55449;PMS5003;41318;58.724;50.180;2022-07-30T21:11:14;21.50;21.50;14.50
55449;PMS5003;41318;58.724;50.180;2022-07-30T21:13:47;24.75;24.00;16.00
55449;PMS5003;41318;58.724;50.180;2022-07-30T21:16:18;18.67;18.67;14.67
55449;PMS5003;41318;58.724;50.180;2022-07-30T21:18:51;20.00;20.00;14.25
55449;PMS5003;41318;58.724;50.180;2022-07-30T21:21:25;20.50;20.50;14.75
55449;PMS5003;41318;58.724;50.180;2022-07-30T21:23:56;20.00;20.00;14.75
55449;PMS5003;41318;58.724;50.180;2022-07-30T21:26:28;23.75;23.75;14.75
55449;PMS5003;41318;58.724;50.180;2022-07-30T21:28:59;21.00;21.00;15.25
55449;PMS5003;41318;58.724;50.180;2022-07-30T21:31:30;24.25;23.75;17.00
55449;PMS5003;41318;58.724;50.180;2022-07-30T21:34:02;22.25;22.25;15.50
55449;PMS5003;41318;58.724;50.180;2022-07-30T21:36:33;24.00;24.00;17.75
55449;PMS5003;41318;58.724;50.180;2022-07-30T21:39:05;17.80;17.80;11.40
55449;PMS5003;41318;58.724;50.180;2022-07-30T21:41:55;25.25;25.25;16.50
55449;PMS5003;41318;58.724;50.180;2022-07-30T21:44:26;18.00;18.00;14.00
55449;PMS5003;41318;58.724;50.180;2022-07-30T21:46:56;23.50;23.25;13.75
55449;PMS5003;41318;58.724;50.180;2022-07-30T21:49:28;22.25;21.75;13.50
55449;PMS5003;41318;58.724;50.180;2022-07-30T21:51:59;25.40;25.20;19.00
55449;PMS5003;41318;58.724;50.180;2022-07-30T21:54:30;25.00;24.25;15.75
55449;PMS5003;41318;58.724;50.180;2022-07-30T21:57:01;21.25;21.25;14.75
55449;PMS5003;41318;58.724;50.180;2022-07-30T21:59:32;24.25;23.25;16.50
55449;PMS5003;41318;58.724;50.180;2022-07-30T22:02:03;25.50;25.25;17.00
55449;PMS5003;41318;58.724;50.180;2022-07-30T22:04:34;21.00;21.00;16.25
55449;PMS5003;41318;58.724;50.180;2022-07-30T22:07:05;17.00;17.00;11.25
55449;PMS5003;41318;58.724;50.180;2022-07-30T22:09:36;24.25;24.25;17.75
55449;PMS5003;41318;58.724;50.180;2022-07-30T22:12:07;22.75;22.75;14.00
55449;PMS5003;41318;58.724;50.180;2022-07-30T22:14:39;21.50;21.50;14.25
55449;PMS5003;41318;58.724;50.180;2022-07-30T22:17:10;20.25;19.75;14.25
55449;PMS5003;41318;58.724;50.180;2022-07-30T22:19:41;22.75;22.75;16.25
55449;PMS5003;41318;58.724;50.180;2022-07-30T22:22:12;21.40;21.40;16.20
55449;PMS5003;41318;58.724;50.180;2022-07-30T22:24:43;23.80;23.80;16.40
55449;PMS5003;41318;58.724;50.180;2022-07-30T22:27:14;20.00;20.00;15.20
55449;PMS5003;41318;58.724;50.180;2022-07-30T22:29:45;23.00;23.00;15.75
55449;PMS5003;41318;58.724;50.180;2022-07-30T22:32:18;24.00;24.00;17.50
55449;PMS5003;41318;58.724;50.180;2022-07-30T22:34:50;21.00;21.00;15.50
55449;PMS5003;41318;58.724;50.180;2022-07-30T22:37:21;23.80;23.20;14.00
55449;PMS5003;41318;58.724;50.180;2022-07-30T22:39:52;24.60;24.20;16.80
55449;PMS5003;41318;58.724;50.180;2022-07-30T22:42:41;18.00;17.50;12.00
55449;PMS5003;41318;58.724;50.180;2022-07-30T22:45:12;21.75;21.75;15.25
55449;PMS5003;41318;58.724;50.180;2022-07-30T22:47:44;20.75;20.75;14.00
55449;PMS5003;41318;58.724;50.180;2022-07-30T22:50:15;21.50;21.50;13.25
55449;PMS5003;41318;58.724;50.180;2022-07-30T22:52:46;22.75;22.75;15.50
55449;PMS5003;41318;58.724;50.180;2022-07-30T22:55:20;21.00;21.00;13.00
55449;PMS5003;41318;58.724;50.180;2022-07-30T22:57:53;23.00;22.60;14.40
55449;PMS5003;41318;58.724;50.180;2022-07-30T23:00:25;30.00;30.00;19.00
55449;PMS5003;41318;58.724;50.180;2022-07-30T23:02:56;42.60;37.60;25.40
55449;PMS5003;41318;58.724;50.180;2022-07-30T23:05:46;32.60;31.20;20.00
55449;PMS5003;41318;58.724;50.180;2022-07-30T23:08:17;20.20;20.20;15.20
55449;PMS5003;41318;58.724;50.180;2022-07-30T23:10:49;18.00;17.80;14.80
55449;PMS5003;41318;58.724;50.180;2022-07-30T23:13:19;27.80;27.40;19.20
55449;PMS5003;41318;58.724;50.180;2022-07-30T23:15:55;35.40;33.00;23.20
55449;PMS5003;41318;58.724;50.180;2022-07-30T23:18:27;47.00;40.40;26.40
55449;PMS5003;41318;58.724;50.180;2022-07-30T23:20:58;34.00;32.75;22.00
55449;PMS5003;41318;58.724;50.180;2022-07-30T23:23:33;36.20;33.60;21.80
55449;PMS5003;41318;58.724;50.180;2022-07-30T23:26:05;37.80;34.00;21.60
55449;PMS5003;41318;58.724;50.180;2022-07-30T23:28:37;30.00;29.60;20.20
55449;PMS5003;41318;58.724;50.180;2022-07-30T23:31:27;33.80;32.60;22.40
55449;PMS5003;41318;58.724;50.180;2022-07-30T23:34:17;25.60;25.60;17.40
55449;PMS5003;41318;58.724;50.180;2022-07-30T23:36:48;21.80;21.80;14.60
55449;PMS5003;41318;58.724;50.180;2022-07-30T23:39:22;25.40;25.40;18.20
55449;PMS5003;41318;58.724;50.180;2022-07-30T23:41:54;27.25;26.75;16.75
55449;PMS5003;41318;58.724;50.180;2022-07-30T23:44:25;24.25;24.25;16.00
55449;PMS5003;41318;58.724;50.180;2022-07-30T23:46:56;23.20;23.20;14.80
55449;PMS5003;41318;58.724;50.180;2022-07-30T23:49:27;24.25;23.75;16.50
55449;PMS5003;41318;58.724;50.180;2022-07-30T23:51:58;21.60;21.40;15.40
55449;PMS5003;41318;58.724;50.180;2022-07-30T23:54:29;24.00;23.60;16.40
55449;PMS5003;41318;58.724;50.180;2022-07-30T23:57:01;32.20;30.80;20.00
55449;PMS5003;41318;58.724;50.180;2022-07-30T23:59:33;22.75;22.75;16.00
